Data for 02/09/2016

Time Sea-Level Adjusted Pressure Absolute Pressure Temperature Relative Humidity Dew Point   
(mb) (inHg) (mb) (inHg) (C) (F) (%) (C) (F)
00:05 1031 30.45 860 25.4 3.7 38.7 60 -3.4 25.9
00:10 1031 30.45 860 25.4 4.2 39.5 57 -3.7 25.4
00:15 1031 30.45 860 25.4 4.5 40 57 -3.3 26.1
00:20 1031 30.45 860 25.4 4.5 40.2 57 -3.2 26.3
00:25 1031 30.45 860 25.4 4.4 39.9 58 -3.1 26.5
00:30 1031 30.45 860 25.4 4.2 39.6 58 -3.3 26
00:35 1031 30.45 860 25.4 4.7 40.4 56 -3.2 26.2
00:40 1031 30.45 860 25.4 4.8 40.6 56 -3.2 26.2
00:45 1031 30.45 860 25.4 4.5 40.1 57 -3.3 26.1
00:50 1031 30.45 860 25.4 4.2 39.5 59 -3.2 26.2
00:55 1031 30.45 860 25.4 4.1 39.4 57 -3.7 25.3
01:00 1031 30.45 860 25.4 4.2 39.5 58 -3.3 26
01:05 1031 30.45 860 25.4 3.7 38.7 60 -3.4 25.9
01:10 1031 30.45 860 25.4 3.4 38.2 61 -3.5 25.8
01:15 1031 30.45 860 25.4 3.2 37.7 63 -3.3 26.1
01:20 1031 30.45 860 25.4 3 37.5 62 -3.5 25.6
01:25 1031 30.45 860 25.4 3.5 38.3 62 -3.1 26.4
01:30 1031 30.45 860 25.4 3.5 38.3 62 -3 26.6
01:35 1031 30.45 860 25.4 3.5 38.3 62 -3.1 26.3
01:40 1031 30.45 860 25.4 3.4 38.2 63 -3 26.6
01:45 1031 30.45 860 25.4 3.3 38 63 -3.1 26.5
01:50 1031 30.45 860 25.4 3.1 37.6 64 -3.1 26.4
01:55 1031 30.45 860 25.4 2.6 36.7 65 -3.4 26
02:00 1031 30.45 860 25.4 2.6 36.7 65 -3.4 25.9
02:05 1031 30.45 860 25.4 2.6 36.6 64 -3.5 25.7
02:10 1031 30.45 860 25.4 2.9 37.1 64 -3.4 25.9
02:15 1031 30.45 860 25.4 2.7 36.9 64 -3.3 26
02:20 1031 30.45 860 25.4 2.6 36.7 64 -3.4 25.8
02:25 1031 30.45 860 25.4 2.8 37 63 -3.5 25.8
02:30 1031 30.45 860 25.4 2.7 36.9 65 -3.3 26.1
02:35 1031 30.45 860 25.4 2.6 36.6 65 -3.3 26
02:40 1031 30.45 860 25.4 2.8 37 63 -3.5 25.7
02:45 1031 30.45 860 25.4 3 37.4 63 -3.4 25.9
02:50 1031 30.45 860 25.4 2.8 37 64 -3.4 26
02:55 1031 30.45 860 25.4 2.5 36.5 65 -3.4 25.9
03:00 1031 30.45 860 25.4 2.4 36.4 65 -3.4 25.8
03:05 1031 30.45 860 25.4 2.5 36.5 65 -3.5 25.8
03:10 1030 30.42 860 25.4 2.4 36.3 65 -3.5 25.7
03:15 1030 30.42 860 25.4 2.4 36.3 65 -3.6 25.5
03:20 1031 30.45 860 25.4 2.4 36.3 66 -3.2 26.2
03:25 1031 30.45 860 25.4 2.4 36.2 65 -3.6 25.6
03:30 1031 30.45 860 25.4 2.2 35.9 66 -3.4 25.8
03:35 1031 30.45 860 25.4 2 35.6 66 -3.7 25.4
03:40 1031 30.45 860 25.4 2.2 36 66 -3.5 25.6
03:45 1031 30.45 860 25.4 2 35.7 67 -3.5 25.6
03:50 1031 30.45 860 25.4 1.9 35.5 66 -3.7 25.4
03:55 1031 30.45 860 25.4 2 35.7 67 -3.5 25.6
04:00 1031 30.45 860 25.4 2 35.7 66 -3.6 25.6
04:05 1031 30.45 860 25.4 1.8 35.2 67 -3.7 25.3
04:10 1031 30.45 860 25.4 1.4 34.6 68 -3.9 25
04:15 1031 30.45 860 25.4 1.1 34 68 -4.1 24.5
04:20 1031 30.45 860 25.4 0.7 33.3 70 -4.2 24.5
04:25 1031 30.45 860 25.4 0.8 33.5 68 -4.3 24.2
04:30 1031 30.45 860 25.4 1.4 34.5 67 -4 24.8
04:35 1031 30.45 860 25.4 1.8 35.2 66 -4 24.9
04:40 1031 30.45 860 25.4 1.8 35.2 66 -4 24.9
04:45 1031 30.45 860 25.4 1.5 34.8 67 -4 24.8
04:50 1030 30.42 860 25.4 1.5 34.7 66 -4.1 24.6
04:55 1030 30.42 860 25.4 1.4 34.5 68 -3.9 24.9
05:00 1030 30.42 860 25.4 1.1 34 69 -3.9 24.9
05:05 1030 30.42 860 25.4 1.1 33.9 70 -3.8 25.2
05:10 1030 30.42 860 25.4 1.1 33.9 71 -3.7 25.3
05:15 1030 30.42 860 25.4 1 33.8 70 -3.8 25.2
05:20 1030 30.42 860 25.4 1 33.8 70 -3.8 25.1
05:25 1030 30.42 860 25.4 0.9 33.6 70 -3.9 25
05:30 1030 30.42 859 25.37 0.8 33.5 71 -3.9 24.9
05:35 1030 30.42 859 25.37 0.7 33.2 71 -4 24.9
05:40 1030 30.42 860 25.4 0.7 33.2 71 -4.1 24.7
05:45 1030 30.42 860 25.4 0.7 33.2 69 -4.3 24.3
05:50 1030 30.42 860 25.4 0.8 33.4 71 -3.9 24.9
05:55 1030 30.42 860 25.4 0.8 33.5 71 -3.8 25.2
06:00 1030 30.42 860 25.4 0.8 33.4 71 -3.9 25
06:05 1031 30.45 860 25.4 0.9 33.6 70 -4 24.7
06:10 1031 30.45 860 25.4 0.8 33.5 69 -4.2 24.4
06:15 1031 30.45 860 25.4 0.4 32.7 73 -4 24.8
06:20 1030 30.42 860 25.4 0.4 32.7 73 -3.9 25
06:25 1030 30.42 860 25.4 0.6 33.1 72 -3.9 25
06:30 1030 30.42 860 25.4 0.7 33.2 72 -3.8 25.1
06:35 1030 30.42 860 25.4 1 33.8 70 -3.8 25.1
06:40 1030 30.42 860 25.4 1.2 34.1 69 -3.8 25.1
06:45 1031 30.45 860 25.4 1.1 34 71 -3.6 25.5
06:50 1031 30.45 860 25.4 0.7 33.3 71 -4 24.8
06:55 1031 30.45 860 25.4 1 33.8 69 -4 24.8
07:00 1031 30.45 860 25.4 1.7 35.1 64 -4.5 23.9
07:05 1031 30.45 860 25.4 2.2 36 62 -4.3 24.2
07:10 1031 30.45 860 25.4 1.8 35.2 64 -4.2 24.4
07:15 1031 30.45 860 25.4 1.2 34.1 66 -4.6 23.8
07:20 1031 30.45 860 25.4 1.1 33.9 65 -4.7 23.6
07:25 1031 30.45 860 25.4 1.4 34.6 64 -4.7 23.5
07:30 1031 30.45 860 25.4 1.3 34.4 64 -4.7 23.5
07:35 1031 30.45 860 25.4 1.4 34.5 64 -4.8 23.4
07:40 1031 30.45 860 25.4 1.3 34.3 65 -4.7 23.6
07:45 1031 30.45 860 25.4 0.9 33.5 66 -4.8 23.4
07:50 1031 30.45 860 25.4 0.5 32.9 67 -4.9 23.1
07:55 1031 30.45 860 25.4 0.3 32.5 68 -4.9 23.2
08:00 1031 30.45 860 25.4 0.3 32.6 68 -4.8 23.3
08:05 1030 30.42 860 25.4 0.3 32.5 69 -4.9 23.2
08:10 1030 30.42 860 25.4 0.2 32.4 69 -4.9 23.2
08:15 1030 30.42 860 25.4 0.2 32.4 68 -5 23
08:20 1030 30.42 860 25.4 0.2 32.4 68 -5.1 22.9
08:25 1030 30.42 860 25.4 0.3 32.6 67 -5 22.9
08:30 1030 30.42 860 25.4 0.9 33.6 65 -5 23.1
08:35 1031 30.45 860 25.4 1.3 34.3 65 -4.5 23.8
08:40 1031 30.45 860 25.4 1.3 34.4 64 -4.7 23.6
08:45 1030 30.42 860 25.4 1.1 34 65 -4.8 23.4
08:50 1030 30.42 860 25.4 0.6 33 69 -4.4 24.1
08:55 1030 30.42 860 25.4 0.3 32.5 70 -4.6 23.7
09:00 1030 30.42 860 25.4 0.3 32.6 69 -4.7 23.6
09:05 1031 30.45 860 25.4 0.6 33.1 68 -4.7 23.6
09:10 1031 30.45 860 25.4 0.6 33.1 68 -4.6 23.8
09:15 1030 30.42 860 25.4 0.5 32.8 68 -4.7 23.6
09:20 1031 30.45 860 25.4 0.5 33 67 -4.9 23.2
09:25 1031 30.45 860 25.4 1.1 33.9 66 -4.5 23.8
09:30 1031 30.45 860 25.4 1.2 34.2 65 -4.6 23.8
09:35 1031 30.45 860 25.4 1.9 35.5 62 -4.6 23.7
09:40 1031 30.45 860 25.4 2.4 36.2 61 -4.4 24
09:45 1031 30.45 860 25.4 2.2 36 62 -4.3 24.2
09:50 1031 30.45 860 25.4 1.5 34.7 63 -4.8 23.4
09:55 1031 30.45 860 25.4 1.7 35 61 -5.1 22.8
10:00 1031 30.45 860 25.4 2.4 36.3 57 -5.2 22.7
10:05 1030 30.42 860 25.4 2.7 36.9 56 -5.2 22.7
10:10 1030 30.42 860 25.4 3.1 37.5 54 -5.3 22.4
10:15 1030 30.42 860 25.4 3.7 38.7 52 -5.1 22.7
10:20 1030 30.42 860 25.4 4.1 39.3 50 -5.4 22.2
10:25 1030 30.42 860 25.4 4.6 40.3 49 -5 22.9
10:30 1030 30.42 860 25.4 5.4 41.8 48 -4.6 23.7
10:35 1030 30.42 860 25.4 5.8 42.5 48 -4.3 24.2
10:40 1030 30.42 860 25.4 5.7 42.2 47 -4.7 23.6
10:45 1030 30.42 860 25.4 5.7 42.2 48 -4.5 23.9
10:50 1030 30.42 860 25.4 5.7 42.3 46 -4.9 23.2
10:55 1030 30.42 860 25.4 5.8 42.4 48 -4.4 24.1
11:00 1030 30.42 860 25.4 5.9 42.7 46 -4.8 23.3
11:05 1030 30.42 860 25.4 6.7 44 44 -4.7 23.5
11:10 1030 30.42 859 25.37 6.7 44 45 -4.5 23.9
11:15 1030 30.42 860 25.4 6.3 43.4 44 -4.9 23.1
11:20 1030 30.42 860 25.4 6.6 43.8 44 -4.9 23.2
11:25 1030 30.42 859 25.37 6.8 44.2 43 -4.8 23.3
11:30 1030 30.42 860 25.4 7.1 44.7 43 -4.6 23.7
11:35 1030 30.42 860 25.4 7.6 45.6 42 -4.5 23.9
11:40 1030 30.42 860 25.4 7.2 44.9 43 -4.6 23.8
11:45 1030 30.42 860 25.4 7.4 45.3 43 -4.3 24.2
11:50 1030 30.42 860 25.4 7.5 45.4 43 -4.2 24.4
11:55 1030 30.42 860 25.4 7.5 45.5 44 -3.9 24.9
12:00 1030 30.42 859 25.37 7.7 45.9 42 -4.3 24.3
12:05 1030 30.42 859 25.37 7.8 46 43 -4 24.7
12:10 1030 30.42 859 25.37 7.3 45.2 45 -3.9 24.9
12:15 1030 30.42 859 25.37 7.4 45.4 43 -4.4 24
12:20 1030 30.42 859 25.37 7.8 46 41 -4.7 23.5
12:25 1030 30.42 859 25.37 8.5 47.3 37 -5.3 22.4
12:30 1030 30.42 859 25.37 9 48.2 36 -5.2 22.7
12:35 1030 30.42 859 25.37 8.9 48 35 -5.8 21.5
12:40 1030 30.42 859 25.37 9.2 48.6 34 -5.9 21.5
12:45 1030 30.42 859 25.37 9 48.1 37 -5.1 22.8
12:50 1030 30.42 859 25.37 8.3 46.9 37 -5.4 22.3
12:55 1030 30.42 859 25.37 8.3 46.9 37 -5.7 21.8
13:00 1029 30.39 859 25.37 8.2 46.8 39 -4.9 23.1
13:05 1029 30.39 859 25.37 7.9 46.2 40 -4.9 23.2
13:10 1029 30.39 858 25.34 8 46.5 38 -5.3 22.4
13:15 1029 30.39 858 25.34 8.3 46.9 37 -5.6 22
13:20 1029 30.39 858 25.34 8.8 47.9 37 -5.1 22.8
13:25 1029 30.39 858 25.34 8.9 47.9 39 -4.4 24.1
13:30 1029 30.39 858 25.34 8.5 47.3 40 -4.2 24.4
13:35 1029 30.39 858 25.34 8.2 46.7 41 -4.1 24.5
13:40 1029 30.39 858 25.34 7.9 46.2 43 -4 24.8
13:45 1029 30.39 858 25.34 8.1 46.6 41 -4.3 24.3
13:50 1029 30.39 858 25.34 8.1 46.6 41 -4.4 24.1
13:55 1029 30.39 858 25.34 8.2 46.8 40 -4.6 23.6
14:00 1029 30.39 858 25.34 8.3 46.9 40 -4.5 24
14:05 1029 30.39 858 25.34 8 46.3 41 -4.4 24.1
14:10 1028 30.36 858 25.34 8.1 46.6 42 -4.2 24.5
14:15 1028 30.36 858 25.34 8.4 47.1 41 -4.1 24.6
14:20 1028 30.36 858 25.34 8.5 47.3 41 -4.1 24.6
14:25 1028 30.36 858 25.34 8.4 47.1 42 -3.8 25.2
14:30 1028 30.36 857 25.31 7.9 46.2 44 -3.7 25.3
14:35 1028 30.36 857 25.31 8 46.3 43 -3.9 25
14:40 1028 30.36 857 25.31 7.9 46.2 45 -3.3 26.1
14:45 1028 30.36 857 25.31 7.9 46.3 41 -4.4 24.2
14:50 1028 30.36 857 25.31 8.3 47 41 -4.2 24.4
14:55 1028 30.36 857 25.31 8.6 47.4 41 -3.9 25
15:00 1028 30.36 857 25.31 8.8 47.9 40 -4 24.9
15:05 1028 30.36 857 25.31 8.6 47.4 42 -3.6 25.6
15:10 1028 30.36 857 25.31 8.5 47.2 41 -3.9 25
15:15 1027 30.33 857 25.31 8.5 47.4 40 -4.1 24.6
15:20 1027 30.33 857 25.31 8.9 48 38 -4.6 23.6
15:25 1027 30.33 857 25.31 9.3 48.7 38 -4.4 24
15:30 1027 30.33 857 25.31 9.7 49.5 38 -3.9 25.1
15:35 1027 30.33 857 25.31 9.4 48.8 38 -4.1 24.7
15:40 1027 30.33 856 25.28 9.3 48.8 38 -4.3 24.2
15:45 1027 30.33 856 25.28 9.3 48.7 38 -4.2 24.5
15:50 1027 30.33 856 25.28 9.6 49.2 37 -4.5 23.8
15:55 1027 30.33 856 25.28 9.7 49.5 36 -4.7 23.6
16:00 1027 30.33 856 25.28 9.9 49.8 35 -4.8 23.3
16:05 1027 30.33 856 25.28 10 49.9 36 -4.5 23.9
16:10 1027 30.33 856 25.28 9.8 49.7 35 -4.9 23.2
16:15 1027 30.33 856 25.28 10.3 50.5 34 -5 23
16:20 1027 30.33 856 25.28 10.4 50.7 34 -4.7 23.6
16:25 1027 30.33 856 25.28 10 50.1 36 -4.2 24.5
16:30 1027 30.33 856 25.28 9.9 49.9 36 -4.3 24.2
16:35 1027 30.33 856 25.28 10 50 36 -4.4 24
16:40 1027 30.33 856 25.28 9.6 49.3 36 -4.6 23.8
16:45 1027 30.33 856 25.28 9.6 49.2 36 -4.9 23.2
16:50 1027 30.33 856 25.28 9.9 49.7 36 -4.4 24
16:55 1027 30.33 856 25.28 10.2 50.4 36 -4.3 24.3
17:00 1027 30.33 856 25.28 10.5 50.9 35 -4.1 24.6
17:05 1027 30.33 856 25.28 10.2 50.4 37 -3.7 25.3
17:10 1027 30.33 856 25.28 9.8 49.6 38 -3.7 25.4
17:15 1027 30.33 856 25.28 9 48.2 41 -3.4 25.9
17:20 1027 30.33 856 25.28 8.6 47.5 41 -3.9 24.9
17:25 1027 30.33 856 25.28 8.7 47.7 41 -3.9 24.9
17:30 1027 30.33 856 25.28 8.8 47.8 40 -4 24.8
17:35 1026 30.3 856 25.28 9.3 48.8 37 -4.4 24.1
17:40 1026 30.3 856 25.28 9.6 49.2 37 -4.3 24.3
17:45 1026 30.3 856 25.28 9.4 48.9 39 -4 24.9
17:50 1026 30.3 855 25.25 9.4 49 38 -4.2 24.5
17:55 1026 30.3 855 25.25 9.6 49.4 37 -4.3 24.3
18:00 1026 30.3 855 25.25 9.7 49.4 37 -4.3 24.3
18:05 1026 30.3 855 25.25 9.5 49.1 38 -4.2 24.5
18:10 1026 30.3 855 25.25 9.3 48.7 39 -4.1 24.6
18:15 1026 30.3 855 25.25 8.8 47.8 40 -3.9 24.9
18:20 1026 30.3 855 25.25 8.6 47.5 40 -4.1 24.6
18:25 1026 30.3 855 25.25 8.4 47.2 41 -4 24.9
18:30 1026 30.3 855 25.25 8.1 46.6 43 -3.8 25.2
18:35 1026 30.3 855 25.25 7.7 45.8 44 -3.8 25.2
18:40 1026 30.3 855 25.25 7 44.6 47 -3.7 25.4
18:45 1026 30.3 855 25.25 6.4 43.4 49 -3.7 25.3
18:50 1026 30.3 855 25.25 5.9 42.7 50 -3.6 25.5
18:55 1026 30.3 855 25.25 5.7 42.2 51 -3.6 25.4
19:00 1026 30.3 855 25.25 5.5 41.9 52 -3.7 25.4
19:05 1026 30.3 855 25.25 5.4 41.8 52 -3.7 25.4
19:10 1026 30.3 855 25.25 5.6 42 51 -3.8 25.1
19:15 1026 30.3 855 25.25 5.6 42.1 51 -3.7 25.3
19:20 1026 30.3 855 25.25 5.5 41.9 52 -3.6 25.5
19:25 1026 30.3 855 25.25 5.4 41.7 51 -3.9 25
19:30 1026 30.3 855 25.25 5.6 42.1 51 -3.8 25.1
19:35 1026 30.3 855 25.25 5.4 41.8 53 -3.5 25.7
19:40 1026 30.3 855 25.25 4.9 40.8 54 -3.8 25.2
19:45 1026 30.3 855 25.25 4.7 40.5 55 -3.5 25.7
19:50 1026 30.3 855 25.25 4.3 39.7 57 -3.5 25.6
19:55 1026 30.3 855 25.25 4 39.2 56 -3.9 24.9
20:00 1026 30.3 855 25.25 4.1 39.5 54 -4.2 24.4
20:05 1026 30.3 855 25.25 4.4 40 53 -4.3 24.3
20:10 1026 30.3 855 25.25 4.3 39.8 54 -4.1 24.5
20:15 1026 30.3 855 25.25 4.3 39.7 54 -4.1 24.6
20:20 1026 30.3 855 25.25 4.1 39.3 55 -4.1 24.6
20:25 1026 30.3 855 25.25 3.9 39 55 -4.4 24
20:30 1026 30.3 855 25.25 3.8 38.8 55 -4.5 23.9
20:35 1026 30.3 855 25.25 3.3 37.9 59 -4 24.8
20:40 1026 30.3 855 25.25 2.9 37.3 57 -4.8 23.4
20:45 1026 30.3 855 25.25 3.2 37.7 52 -5.6 21.9
20:50 1026 30.3 855 25.25 3.6 38.5 52 -5.4 22.2
20:55 1026 30.3 855 25.25 3.9 39 49 -5.7 21.7
21:00 1026 30.3 855 25.25 4.1 39.3 46 -6.5 20.4
21:05 1026 30.3 855 25.25 4 39.2 48 -6.1 21
21:10 1025 30.27 855 25.25 3.5 38.3 48 -6.4 20.5
21:15 1025 30.27 855 25.25 3.2 37.8 49 -6.5 20.4
21:20 1025 30.27 855 25.25 3.2 37.7 49 -6.5 20.3
21:25 1025 30.27 855 25.25 2.9 37.3 51 -6.2 20.8
21:30 1025 30.27 855 25.25 2.4 36.4 51 -6.7 20
21:35 1025 30.27 854 25.22 2.7 36.9 52 -6.3 20.7
21:40 1025 30.27 854 25.22 2.6 36.7 54 -5.8 21.6
21:45 1025 30.27 854 25.22 2.5 36.6 53 -6.1 21.1
21:50 1025 30.27 854 25.22 2.3 36.2 52 -6.4 20.4
21:55 1025 30.27 854 25.22 2.7 36.8 51 -6.4 20.4
22:00 1025 30.27 854 25.22 2.3 36.2 52 -6.4 20.5
22:05 1025 30.27 854 25.22 2.2 36 49 -7.4 18.7
22:10 1025 30.27 854 25.22 2.6 36.6 48 -7.4 18.7
22:15 1025 30.27 854 25.22 2.6 36.6 48 -7.4 18.7
22:20 1025 30.27 854 25.22 2.5 36.6 48 -7.3 18.8
22:25 1025 30.27 854 25.22 2.7 36.9 49 -7 19.5
22:30 1025 30.27 854 25.22 2.3 36.2 50 -7.1 19.3
22:35 1025 30.27 854 25.22 2 35.6 51 -7.2 19
22:40 1025 30.27 854 25.22 2 35.7 50 -7.3 18.8
22:45 1025 30.27 854 25.22 2.1 35.8 48 -7.7 18.1
22:50 1025 30.27 854 25.22 2.7 36.8 45 -8.2 17.2
22:55 1025 30.27 854 25.22 3.6 38.5 42 -8 17.6
23:00 1025 30.27 854 25.22 4 39.2 42 -7.8 17.9
23:05 1025 30.27 854 25.22 3.6 38.4 43 -7.8 18
23:10 1024 30.24 854 25.22 2.8 37.1 43 -8.5 16.7
23:15 1024 30.24 854 25.22 3.2 37.8 42 -8.5 16.7
23:20 1024 30.24 854 25.22 3.2 37.7 41 -8.9 16.1
23:25 1024 30.24 854 25.22 3.4 38.1 43 -8 17.6
23:30 1024 30.24 854 25.22 2.6 36.7 43 -8.7 16.3
23:35 1024 30.24 854 25.22 2.7 36.9 44 -8.2 17.2
23:40 1024 30.24 854 25.22 3.3 38 42 -8.5 16.7
23:45 1024 30.24 854 25.22 3.9 39.1 42 -7.9 17.7
23:50 1025 30.27 854 25.22 3.2 37.8 42 -8.4 16.9
23:55 1025 30.27 854 25.22 3.1 37.5 45 -7.9 17.8
24:00 1025 30.27 854 25.22 2.1 35.7 46 -8.4 16.9